createdAt,value
2023-07-19T00:00:33.713Z,1670.00
2023-07-19T00:01:33.774Z,1667.00
2023-07-19T00:02:33.834Z,1658.00
2023-07-19T00:03:33.946Z,1632.00
2023-07-19T00:04:33.882Z,1626.00
2023-07-19T00:05:33.873Z,1618.00
2023-07-19T00:06:33.921Z,1598.00
2023-07-19T00:07:33.992Z,1592.00
2023-07-19T00:08:33.984Z,1577.00
2023-07-19T00:09:34.008Z,1569.00
2023-07-19T00:10:34.033Z,1546.00
2023-07-19T00:11:34.175Z,1558.00
2023-07-19T00:12:42.580Z,1559.00
2023-07-19T00:13:35.082Z,1560.00
2023-07-19T00:14:34.167Z,1560.00
2023-07-19T00:15:34.083Z,1560.00
2023-07-19T00:16:34.273Z,1552.00
2023-07-19T00:17:34.247Z,1564.00
2023-07-19T00:18:34.109Z,1565.00
2023-07-19T00:19:34.071Z,1576.00
2023-07-19T00:20:34.029Z,1591.00
2023-07-19T00:21:34.071Z,1605.00
2023-07-19T00:22:34.047Z,1601.00
2023-07-19T00:23:34.033Z,1605.00
2023-07-19T00:24:34.025Z,1609.00
2023-07-19T00:25:34.013Z,1627.00
2023-07-19T00:26:34.029Z,1629.00
2023-07-19T00:27:34.006Z,1623.00
2023-07-19T00:28:33.979Z,1622.00
2023-07-19T00:29:33.988Z,1608.00
2023-07-19T00:30:34.017Z,1614.00
2023-07-19T00:31:34.024Z,1629.00
2023-07-19T00:32:34.083Z,1631.00
2023-07-19T00:33:34.087Z,1629.00
2023-07-19T00:34:34.199Z,1623.00
2023-07-19T00:35:34.124Z,1634.00
2023-07-19T00:36:34.172Z,1637.00
2023-07-19T00:37:34.190Z,1636.00
2023-07-19T00:38:34.209Z,1639.00
2023-07-19T00:39:34.256Z,1632.00
2023-07-19T00:40:34.309Z,1620.00
2023-07-19T00:41:34.436Z,1653.00
2023-07-19T00:42:34.476Z,1649.00
2023-07-19T00:43:34.431Z,1650.00
2023-07-19T00:44:34.423Z,1647.00
2023-07-19T00:45:34.487Z,1653.00
2023-07-19T00:46:34.448Z,1659.00
2023-07-19T00:47:34.594Z,1648.00
2023-07-19T00:48:34.532Z,1635.00
2023-07-19T00:49:34.519Z,1627.00
2023-07-19T00:50:34.400Z,1616.00
2023-07-19T00:51:34.591Z,1621.00
2023-07-19T00:52:34.433Z,1616.00
2023-07-19T00:53:34.444Z,1609.00
2023-07-19T00:54:34.576Z,1601.00
2023-07-19T00:55:34.483Z,1592.00
2023-07-19T00:56:34.459Z,1589.00
2023-07-19T00:57:34.468Z,1590.00
2023-07-19T00:58:34.601Z,1584.00
2023-07-19T00:59:34.677Z,1571.00
2023-07-19T01:00:34.580Z,1576.00
2023-07-19T01:01:34.594Z,1580.00
2023-07-19T01:02:34.813Z,1582.00
2023-07-19T01:03:34.699Z,1575.00
2023-07-19T01:04:34.730Z,1562.00
2023-07-19T01:05:34.616Z,1563.00
2023-07-19T01:06:34.743Z,1553.00
2023-07-19T01:07:34.788Z,1576.00
2023-07-19T01:08:34.785Z,1577.00
2023-07-19T01:09:34.724Z,1561.00
2023-07-19T01:10:34.663Z,1567.00
2023-07-19T01:11:34.777Z,1543.00
2023-07-19T01:12:34.794Z,1566.00
2023-07-19T01:13:34.789Z,1569.00
2023-07-19T01:14:34.784Z,1566.00
2023-07-19T01:15:34.650Z,1572.00
2023-07-19T01:16:34.718Z,1575.00
2023-07-19T01:17:34.689Z,1573.00
2023-07-19T01:18:34.666Z,1571.00
2023-07-19T01:19:34.688Z,1573.00
2023-07-19T01:20:34.637Z,1572.00
2023-07-19T01:21:34.859Z,1571.00
2023-07-19T01:22:34.825Z,1562.00
2023-07-19T01:23:34.723Z,1592.00
2023-07-19T01:24:34.679Z,1576.00
2023-07-19T01:25:34.741Z,1574.00
2023-07-19T01:26:34.677Z,1579.00
2023-07-19T01:27:34.721Z,1580.00
2023-07-19T01:28:34.714Z,1573.00
2023-07-19T01:29:34.712Z,1573.00
2023-07-19T01:30:34.720Z,1605.00
2023-07-19T01:31:34.753Z,1581.00
2023-07-19T01:32:34.799Z,1588.00
2023-07-19T01:33:34.784Z,1595.00
2023-07-19T01:34:34.732Z,1599.00
2023-07-19T01:35:34.762Z,1585.00
2023-07-19T01:36:34.745Z,1606.00
2023-07-19T01:37:34.713Z,1602.00
2023-07-19T01:38:34.734Z,1607.00
2023-07-19T01:39:34.721Z,1621.00
2023-07-19T01:40:34.736Z,1618.00
2023-07-19T01:41:34.732Z,1617.00
2023-07-19T01:42:34.758Z,1619.00
2023-07-19T01:43:34.768Z,1626.00
2023-07-19T01:44:34.756Z,1637.00
2023-07-19T01:45:34.794Z,1633.00
2023-07-19T01:46:34.772Z,1628.00
2023-07-19T01:47:34.823Z,1626.00
2023-07-19T01:48:34.752Z,1594.00
2023-07-19T01:49:34.802Z,1597.00
2023-07-19T01:50:34.844Z,1580.00
2023-07-19T01:51:34.763Z,1552.00
2023-07-19T01:52:34.786Z,1552.00
2023-07-19T01:53:34.771Z,1542.00
2023-07-19T01:54:34.776Z,1535.00
2023-07-19T01:55:34.784Z,1533.00
2023-07-19T01:56:34.779Z,1525.00
2023-07-19T01:57:34.786Z,1505.00
2023-07-19T01:58:34.774Z,1500.00
2023-07-19T01:59:34.778Z,1499.00
2023-07-19T02:00:34.745Z,1498.00
2023-07-19T02:01:34.907Z,1492.00
2023-07-19T02:02:34.937Z,1497.00
2023-07-19T02:03:34.849Z,1500.00
2023-07-19T02:04:34.804Z,1507.00
2023-07-19T02:05:34.729Z,1508.00
2023-07-19T02:06:34.759Z,1495.00
2023-07-19T02:07:34.760Z,1504.00
2023-07-19T02:08:34.735Z,1515.00
2023-07-19T02:09:34.773Z,1518.00
2023-07-19T02:10:34.790Z,1521.00
2023-07-19T02:11:34.780Z,1516.00
2023-07-19T02:12:34.735Z,1506.00
2023-07-19T02:13:34.765Z,1508.00
2023-07-19T02:14:34.728Z,1511.00
2023-07-19T02:15:34.745Z,1507.00
2023-07-19T02:16:34.696Z,1519.00
2023-07-19T02:17:34.761Z,1529.00
2023-07-19T02:18:34.677Z,1523.00
2023-07-19T02:19:34.722Z,1522.00
2023-07-19T02:20:34.681Z,1511.00
2023-07-19T02:21:34.709Z,1516.00
2023-07-19T02:22:34.727Z,1520.00
2023-07-19T02:23:34.672Z,1539.00
2023-07-19T02:24:34.669Z,1521.00
2023-07-19T02:25:34.654Z,1524.00
2023-07-19T02:26:34.678Z,1527.00
2023-07-19T02:27:34.663Z,1523.00
2023-07-19T02:28:34.683Z,1539.00
2023-07-19T02:29:34.677Z,1528.00
2023-07-19T02:30:34.698Z,1526.00
2023-07-19T02:31:34.768Z,1531.00
2023-07-19T02:32:34.668Z,1520.00
2023-07-19T02:33:34.642Z,1523.00
2023-07-19T02:34:34.654Z,1501.00
2023-07-19T02:35:34.638Z,1522.00
2023-07-19T02:36:34.646Z,1511.00
2023-07-19T02:37:34.628Z,1503.00
2023-07-19T02:38:34.646Z,1510.00
2023-07-19T02:39:34.610Z,1503.00
2023-07-19T02:40:34.636Z,1510.00
2023-07-19T02:41:34.644Z,1530.00
2023-07-19T02:42:34.626Z,1524.00
2023-07-19T02:43:34.608Z,1521.00
2023-07-19T02:44:34.592Z,1520.00
2023-07-19T02:45:34.603Z,1527.00
2023-07-19T02:46:35.095Z,1529.00
2023-07-19T02:47:34.624Z,1514.00
2023-07-19T02:48:34.604Z,1542.00
2023-07-19T02:49:34.599Z,1540.00
2023-07-19T02:50:34.617Z,1563.00
2023-07-19T02:51:34.569Z,1552.00
2023-07-19T02:52:34.600Z,1567.00
2023-07-19T02:53:34.586Z,1565.00
2023-07-19T02:54:34.561Z,1563.00
2023-07-19T02:55:34.568Z,1565.00
2023-07-19T02:56:34.582Z,1570.00
2023-07-19T02:57:34.566Z,1568.00
2023-07-19T02:58:34.565Z,1554.00
2023-07-19T02:59:34.579Z,1562.00
2023-07-19T03:00:34.625Z,1569.00
2023-07-19T03:01:34.599Z,1571.00
2023-07-19T03:02:34.596Z,1571.00
2023-07-19T03:03:34.788Z,1576.00
2023-07-19T03:04:34.523Z,1581.00
2023-07-19T03:05:34.546Z,1581.00
2023-07-19T03:06:34.536Z,1582.00
2023-07-19T03:07:34.553Z,1569.00
2023-07-19T03:08:34.552Z,1567.00
2023-07-19T03:09:34.571Z,1561.00
2023-07-19T03:10:34.541Z,1567.00
2023-07-19T03:11:34.516Z,1570.00
2023-07-19T03:12:34.513Z,1567.00
2023-07-19T03:13:34.505Z,1567.00
2023-07-19T03:14:34.534Z,1562.00
2023-07-19T03:15:34.555Z,1548.00
2023-07-19T03:16:34.562Z,1546.00
2023-07-19T03:17:34.502Z,1537.00
2023-07-19T03:18:34.515Z,1544.00
2023-07-19T03:19:34.486Z,1524.00
2023-07-19T03:20:34.491Z,1536.00
2023-07-19T03:21:34.491Z,1546.00
2023-07-19T03:22:34.541Z,1546.00
2023-07-19T03:23:34.485Z,1551.00
2023-07-19T03:24:34.524Z,1535.00
2023-07-19T03:25:34.498Z,1557.00
2023-07-19T03:26:34.480Z,1553.00
2023-07-19T03:27:34.460Z,1557.00
2023-07-19T03:28:34.484Z,1565.00
2023-07-19T03:29:34.488Z,1565.00
2023-07-19T03:30:34.534Z,1571.00
2023-07-19T03:31:34.496Z,1575.00
2023-07-19T03:32:34.560Z,1598.00
2023-07-19T03:33:34.457Z,1598.00
2023-07-19T03:34:34.453Z,1598.00
2023-07-19T03:35:34.449Z,1597.00
2023-07-19T03:36:34.486Z,1575.00
2023-07-19T03:37:34.442Z,1579.00
2023-07-19T03:38:34.490Z,1586.00
2023-07-19T03:39:34.472Z,1584.00
2023-07-19T03:40:34.494Z,1593.00
2023-07-19T03:41:34.480Z,1591.00
2023-07-19T03:42:34.474Z,1583.00
2023-07-19T03:43:34.485Z,1596.00
2023-07-19T03:44:34.484Z,1591.00
2023-07-19T03:45:34.487Z,1588.00
2023-07-19T03:46:34.536Z,1598.00
2023-07-19T03:47:34.519Z,1591.00
2023-07-19T03:48:34.576Z,1600.00
2023-07-19T03:49:34.597Z,1594.00
2023-07-19T03:50:34.476Z,1593.00
2023-07-19T03:51:34.467Z,1592.00
2023-07-19T03:52:34.511Z,1598.00
2023-07-19T03:53:34.479Z,1587.00
2023-07-19T03:54:34.512Z,1585.00
2023-07-19T03:55:34.496Z,1591.00
2023-07-19T03:56:34.475Z,1600.00
2023-07-19T03:57:34.478Z,1596.00
2023-07-19T03:58:34.536Z,1583.00
2023-07-19T03:59:34.471Z,1599.00
2023-07-19T04:00:34.494Z,1583.00
2023-07-19T04:01:34.488Z,1590.00
2023-07-19T04:02:34.529Z,1595.00
2023-07-19T04:03:34.562Z,1591.00
2023-07-19T04:04:34.499Z,1582.00
2023-07-19T04:05:34.513Z,1585.00
2023-07-19T04:06:34.501Z,1591.00
2023-07-19T04:07:34.502Z,1593.00
2023-07-19T04:08:34.490Z,1581.00
2023-07-19T04:09:34.516Z,1585.00
2023-07-19T04:10:34.490Z,1587.00
2023-07-19T04:11:34.503Z,1581.00
2023-07-19T04:12:34.478Z,1580.00
2023-07-19T04:13:34.503Z,1584.00
2023-07-19T04:14:34.538Z,1566.00
2023-07-19T04:15:34.511Z,1561.00
2023-07-19T04:16:34.538Z,1567.00
2023-07-19T04:17:34.529Z,1566.00
2023-07-19T04:18:34.514Z,1564.00
2023-07-19T04:19:34.499Z,1570.00
2023-07-19T04:20:34.531Z,1573.00
2023-07-19T04:21:34.476Z,1567.00
2023-07-19T04:22:34.585Z,1564.00
2023-07-19T04:23:34.464Z,1567.00
2023-07-19T04:24:34.513Z,1576.00
2023-07-19T04:25:34.486Z,1582.00
2023-07-19T04:26:34.474Z,1567.00
2023-07-19T04:27:34.484Z,1585.00
2023-07-19T04:28:34.496Z,1576.00
2023-07-19T04:29:34.485Z,1592.00
2023-07-19T04:30:34.471Z,1601.00
2023-07-19T04:31:34.483Z,1608.00
2023-07-19T04:32:34.555Z,1602.00
2023-07-19T04:33:34.601Z,1611.00
2023-07-19T04:34:34.506Z,1607.00
2023-07-19T04:35:34.495Z,1623.00
2023-07-19T04:36:34.483Z,1624.00
2023-07-19T04:37:34.606Z,1631.00
2023-07-19T04:38:34.481Z,1626.00
2023-07-19T04:39:34.493Z,1640.00
2023-07-19T04:40:34.516Z,1641.00
2023-07-19T04:41:34.484Z,1636.00
2023-07-19T04:42:34.471Z,1627.00
2023-07-19T04:43:34.461Z,1637.00
2023-07-19T04:44:34.465Z,1628.00
2023-07-19T04:45:34.483Z,1615.00
2023-07-19T04:46:34.624Z,1622.00
2023-07-19T04:47:34.557Z,1617.00
2023-07-19T04:48:34.483Z,1622.00
2023-07-19T04:49:34.466Z,1624.00
2023-07-19T04:50:34.502Z,1613.00
2023-07-19T04:51:34.483Z,1589.00
2023-07-19T04:52:34.481Z,1593.00
2023-07-19T04:53:34.505Z,1591.00
2023-07-19T04:54:34.496Z,1597.00
2023-07-19T04:55:34.474Z,1590.00
2023-07-19T04:56:34.503Z,1588.00
2023-07-19T04:57:34.513Z,1582.00
2023-07-19T04:58:34.478Z,1582.00
2023-07-19T04:59:34.498Z,1575.00
2023-07-19T05:00:34.504Z,1586.00
2023-07-19T05:01:34.540Z,1571.00
2023-07-19T05:02:34.555Z,1579.00
2023-07-19T05:03:34.519Z,1569.00
2023-07-19T05:04:34.522Z,1583.00
2023-07-19T05:05:34.618Z,1590.00
2023-07-19T05:06:34.512Z,1571.00
2023-07-19T05:07:34.554Z,1577.00
2023-07-19T05:08:34.562Z,1582.00
2023-07-19T05:09:34.545Z,1572.00
2023-07-19T05:10:34.538Z,1564.00
2023-07-19T05:11:34.554Z,1571.00
2023-07-19T05:12:34.557Z,1563.00
2023-07-19T05:13:34.565Z,1572.00
2023-07-19T05:14:34.569Z,1551.00
2023-07-19T05:15:34.570Z,1560.00
2023-07-19T05:16:34.673Z,1559.00
2023-07-19T05:17:34.625Z,1567.00
2023-07-19T05:18:34.593Z,1571.00
2023-07-19T05:19:34.599Z,1585.00
2023-07-19T05:20:34.592Z,1579.00
2023-07-19T05:21:34.638Z,1582.00
2023-07-19T05:22:34.786Z,1568.00
2023-07-19T05:23:34.641Z,1575.00
2023-07-19T05:24:34.622Z,1592.00
2023-07-19T05:25:34.603Z,1581.00
2023-07-19T05:26:34.645Z,1611.00
2023-07-19T05:27:34.621Z,1612.00
2023-07-19T05:28:34.612Z,1622.00
2023-07-19T05:29:34.602Z,1626.00
2023-07-19T05:30:34.626Z,1615.00
2023-07-19T05:31:34.720Z,1629.00
2023-07-19T05:32:34.669Z,1643.00
2023-07-19T05:33:34.659Z,1656.00
2023-07-19T05:34:34.641Z,1649.00
2023-07-19T05:35:34.643Z,1672.00
2023-07-19T05:36:34.640Z,1672.00
2023-07-19T05:37:34.634Z,1666.00
2023-07-19T05:38:34.662Z,1670.00
2023-07-19T05:39:34.632Z,1693.00
2023-07-19T05:40:34.659Z,1706.00
2023-07-19T05:41:34.664Z,1702.00
2023-07-19T05:42:34.651Z,1704.00
2023-07-19T05:43:34.700Z,1678.00
2023-07-19T05:44:34.666Z,1685.00
2023-07-19T05:45:34.722Z,1689.00
2023-07-19T05:46:34.691Z,1687.00
2023-07-19T05:47:34.740Z,1688.00
2023-07-19T05:48:34.729Z,1689.00
2023-07-19T05:49:34.722Z,1702.00
2023-07-19T05:50:34.731Z,1690.00
2023-07-19T05:51:34.730Z,1697.00
2023-07-19T05:52:34.725Z,1706.00
2023-07-19T05:53:34.742Z,1714.00
2023-07-19T05:54:34.770Z,1715.00
2023-07-19T05:55:34.811Z,1709.00
2023-07-19T05:56:34.748Z,1725.00
2023-07-19T05:57:34.741Z,1725.00
2023-07-19T05:58:34.753Z,1734.00
2023-07-19T05:59:34.749Z,1720.00
2023-07-19T06:00:34.757Z,1721.00
2023-07-19T06:01:35.516Z,1724.00
2023-07-19T06:02:47.769Z,1732.00
2023-07-19T06:03:35.900Z,1733.00
2023-07-19T06:04:34.820Z,1736.00
2023-07-19T06:05:34.775Z,1735.00
2023-07-19T06:06:34.821Z,1736.00
2023-07-19T06:07:34.698Z,1757.00
2023-07-19T06:08:34.726Z,1741.00
2023-07-19T06:09:34.718Z,1747.00
2023-07-19T06:10:34.697Z,1738.00
2023-07-19T06:11:34.740Z,1739.00
2023-07-19T06:12:34.699Z,1745.00
2023-07-19T06:13:34.682Z,1731.00
2023-07-19T06:14:34.668Z,1743.00
2023-07-19T06:15:34.695Z,1727.00
2023-07-19T06:16:34.653Z,1739.00
2023-07-19T06:17:34.716Z,1724.00
2023-07-19T06:18:34.670Z,1736.00
2023-07-19T06:19:34.656Z,1725.00
2023-07-19T06:20:34.643Z,1743.00
2023-07-19T06:21:34.627Z,1716.00
2023-07-19T06:22:34.664Z,1719.00
2023-07-19T06:23:34.745Z,1711.00
2023-07-19T06:24:34.632Z,1706.00
2023-07-19T06:25:34.610Z,1692.00
2023-07-19T06:26:34.584Z,1683.00
2023-07-19T06:27:34.578Z,1674.00
2023-07-19T06:28:34.636Z,1671.00
2023-07-19T06:29:34.568Z,1659.00
2023-07-19T06:30:34.575Z,1665.00
2023-07-19T06:31:34.615Z,1651.00
2023-07-19T06:32:34.596Z,1638.00
2023-07-19T06:33:34.572Z,1630.00
2023-07-19T06:34:34.553Z,1624.00
2023-07-19T06:35:34.653Z,1607.00
2023-07-19T06:36:34.550Z,1599.00
2023-07-19T06:37:34.582Z,1592.00
2023-07-19T06:38:34.643Z,1597.00
2023-07-19T06:39:34.677Z,1593.00
2023-07-19T06:40:34.710Z,1588.00
2023-07-19T06:41:34.728Z,1577.00
2023-07-19T06:42:34.788Z,1590.00
2023-07-19T06:43:34.800Z,1580.00
2023-07-19T06:44:34.799Z,1593.00
2023-07-19T06:45:34.821Z,1595.00
2023-07-19T06:46:34.889Z,1607.00
2023-07-19T06:47:34.877Z,1636.00
2023-07-19T06:48:34.855Z,1640.00
2023-07-19T06:49:34.922Z,1653.00
2023-07-19T06:50:34.931Z,1660.00
2023-07-19T06:51:34.988Z,1656.00
2023-07-19T06:52:34.975Z,1669.00
2023-07-19T06:53:34.994Z,1669.00
2023-07-19T06:54:35.015Z,1666.00
2023-07-19T06:55:35.094Z,1663.00
2023-07-19T06:56:35.121Z,1667.00
2023-07-19T06:57:35.125Z,1666.00
2023-07-19T06:58:35.168Z,1663.00
2023-07-19T06:59:35.273Z,1659.00
2023-07-19T07:00:35.347Z,1668.00
2023-07-19T07:01:35.322Z,1679.00
2023-07-19T07:02:35.361Z,1669.00
2023-07-19T07:03:35.576Z,1678.00
2023-07-19T07:04:35.444Z,1686.00
2023-07-19T07:05:35.552Z,1680.00
2023-07-19T07:06:35.533Z,1678.00
2023-07-19T07:07:35.586Z,1676.00
2023-07-19T07:08:35.619Z,1659.00
2023-07-19T07:09:35.640Z,1657.00
2023-07-19T07:10:35.696Z,1666.00
2023-07-19T07:11:35.705Z,1674.00
2023-07-19T07:12:35.756Z,1651.00
2023-07-19T07:13:35.753Z,1649.00
2023-07-19T07:14:35.793Z,1651.00
2023-07-19T07:15:35.797Z,1680.00
2023-07-19T07:16:35.894Z,1681.00
2023-07-19T07:17:35.899Z,1679.00
2023-07-19T07:18:35.910Z,1682.00
2023-07-19T07:19:36.170Z,1682.00
2023-07-19T07:20:35.966Z,1685.00
2023-07-19T07:21:36.008Z,1683.00
2023-07-19T07:22:36.083Z,1682.00
2023-07-19T07:23:36.183Z,1684.00
2023-07-19T07:24:36.150Z,1680.00
2023-07-19T07:25:36.166Z,1681.00
2023-07-19T07:26:36.229Z,1656.00
2023-07-19T07:27:36.275Z,1655.00
2023-07-19T07:28:36.322Z,1646.00
2023-07-19T07:29:36.431Z,1647.00
2023-07-19T07:30:36.413Z,1639.00
2023-07-19T07:31:36.495Z,1626.00
2023-07-19T07:32:36.594Z,1625.00
2023-07-19T07:33:36.652Z,1607.00
2023-07-19T07:34:36.640Z,1614.00
2023-07-19T07:35:36.767Z,1605.00
2023-07-19T07:36:36.757Z,1621.00
2023-07-19T07:37:36.805Z,1604.00
2023-07-19T07:38:36.875Z,1619.00
2023-07-19T07:39:36.964Z,1602.00
2023-07-19T07:40:36.994Z,1615.00
2023-07-19T07:41:37.091Z,1607.00
2023-07-19T07:42:37.125Z,1594.00
2023-07-19T07:43:37.223Z,1616.00
2023-07-19T07:44:37.240Z,1605.00
2023-07-19T07:45:37.286Z,1603.00
2023-07-19T07:46:37.470Z,1586.00
2023-07-19T07:47:37.434Z,1586.00
2023-07-19T07:48:37.502Z,1573.00
2023-07-19T07:49:37.527Z,1567.00
2023-07-19T07:50:37.653Z,1565.00
2023-07-19T07:51:37.665Z,1567.00
2023-07-19T07:52:37.739Z,1557.00
2023-07-19T07:53:37.843Z,1560.00
2023-07-19T07:54:37.866Z,1544.00
2023-07-19T07:55:37.906Z,1543.00
2023-07-19T07:56:37.953Z,1536.00
2023-07-19T07:57:38.049Z,1528.00
2023-07-19T07:58:38.103Z,1535.00
2023-07-19T07:59:38.140Z,1532.00
2023-07-19T08:00:38.237Z,1540.00
2023-07-19T08:01:38.282Z,1546.00
2023-07-19T08:02:38.467Z,1536.00
2023-07-19T08:03:38.480Z,1545.00
2023-07-19T08:04:38.444Z,1535.00
2023-07-19T08:05:38.473Z,1549.00
2023-07-19T08:06:38.509Z,1565.00
2023-07-19T08:07:38.569Z,1567.00
2023-07-19T08:08:38.583Z,1560.00
2023-07-19T08:09:38.690Z,1577.00
2023-07-19T08:10:38.641Z,1577.00
2023-07-19T08:11:38.672Z,1568.00
2023-07-19T08:12:38.716Z,1576.00
2023-07-19T08:13:38.725Z,1571.00
2023-07-19T08:14:38.741Z,1559.00
2023-07-19T08:15:38.749Z,1552.00
2023-07-19T08:16:38.787Z,1546.00
2023-07-19T08:17:38.812Z,1566.00
2023-07-19T08:18:38.805Z,1559.00
2023-07-19T08:19:38.871Z,1567.00
2023-07-19T08:20:38.819Z,1548.00
2023-07-19T08:21:38.990Z,1544.00
2023-07-19T08:22:38.854Z,1539.00
2023-07-19T08:23:38.846Z,1516.00
2023-07-19T08:24:38.843Z,1512.00
2023-07-19T08:25:38.836Z,1501.00
2023-07-19T08:26:38.833Z,1492.00
2023-07-19T08:27:38.847Z,1490.00
2023-07-19T08:28:38.829Z,1473.00
2023-07-19T08:29:38.904Z,1482.00
2023-07-19T08:30:38.852Z,1486.00
2023-07-19T08:31:38.827Z,1481.00
2023-07-19T08:32:38.910Z,1492.00
2023-07-19T08:33:38.861Z,1493.00
2023-07-19T08:34:38.881Z,1480.00
2023-07-19T08:35:38.858Z,1488.00
2023-07-19T08:36:38.881Z,1500.00
2023-07-19T08:37:38.886Z,1484.00
2023-07-19T08:38:38.892Z,1463.00
2023-07-19T08:39:38.912Z,1456.00
2023-07-19T08:40:38.928Z,1474.00
2023-07-19T08:41:38.919Z,1460.00
2023-07-19T08:42:38.985Z,1455.00
2023-07-19T08:43:38.977Z,1426.00
2023-07-19T08:44:38.964Z,1418.00
2023-07-19T08:45:38.972Z,1399.00
2023-07-19T08:46:39.017Z,1378.00
2023-07-19T08:47:39.015Z,1367.00
2023-07-19T08:48:39.028Z,1354.00
2023-07-19T08:49:39.040Z,1343.00
2023-07-19T08:50:39.078Z,1331.00
2023-07-19T08:51:39.088Z,1312.00
2023-07-19T08:52:39.102Z,1303.00
2023-07-19T08:53:39.126Z,1311.00
2023-07-19T08:54:39.144Z,1326.00
2023-07-19T08:55:39.155Z,1282.00
2023-07-19T08:56:39.166Z,1293.00
2023-07-19T08:57:39.226Z,1286.00
2023-07-19T08:58:39.287Z,1293.00
2023-07-19T08:59:39.232Z,1289.00
2023-07-19T09:00:39.249Z,1290.00
2023-07-19T09:01:39.319Z,1302.00
2023-07-19T09:02:39.350Z,1303.00
2023-07-19T09:03:39.330Z,1283.00
2023-07-19T09:04:39.405Z,1294.00
2023-07-19T09:05:39.374Z,1302.00
2023-07-19T09:06:39.418Z,1297.00
2023-07-19T09:07:39.432Z,1310.00
2023-07-19T09:08:39.452Z,1309.00
2023-07-19T09:09:39.483Z,1303.00
2023-07-19T09:10:39.550Z,1290.00
2023-07-19T09:11:39.510Z,1306.00
2023-07-19T09:12:39.611Z,1302.00
2023-07-19T09:13:40.140Z,1286.00
2023-07-19T09:14:39.581Z,1307.00
2023-07-19T09:15:39.601Z,1304.00
2023-07-19T09:16:39.606Z,1312.00
2023-07-19T09:17:39.749Z,1312.00
2023-07-19T09:18:40.259Z,1296.00
2023-07-19T09:19:39.688Z,1282.00
2023-07-19T09:20:39.698Z,1299.00
2023-07-19T09:21:39.697Z,1315.00
2023-07-19T09:22:39.741Z,1322.00
2023-07-19T09:23:39.760Z,1305.00
2023-07-19T09:24:39.757Z,1290.00
2023-07-19T09:25:39.775Z,1249.00
2023-07-19T09:26:39.744Z,1260.00
2023-07-19T09:27:39.762Z,1249.00
2023-07-19T09:28:39.781Z,1252.00
2023-07-19T09:29:39.802Z,1247.00
2023-07-19T09:30:39.779Z,1251.00
2023-07-19T09:31:39.812Z,1253.00
2023-07-19T09:32:39.820Z,1232.00
2023-07-19T09:33:39.771Z,1254.00
2023-07-19T09:34:39.800Z,1253.00
2023-07-19T09:35:39.782Z,1251.00
2023-07-19T09:36:39.787Z,1243.00
2023-07-19T09:37:39.752Z,1240.00
2023-07-19T09:38:39.783Z,1223.00
2023-07-19T09:39:39.769Z,1248.00
2023-07-19T09:40:39.744Z,1239.00
2023-07-19T09:41:39.758Z,1259.00
2023-07-19T09:42:39.740Z,1265.00
2023-07-19T09:43:39.733Z,1272.00
2023-07-19T09:44:39.758Z,1263.00
2023-07-19T09:45:39.744Z,1283.00
2023-07-19T09:46:39.758Z,1258.00
2023-07-19T09:47:39.809Z,1277.00
2023-07-19T09:48:39.871Z,1266.00
2023-07-19T09:49:39.925Z,1251.00
2023-07-19T09:50:39.990Z,1251.00
2023-07-19T09:51:40.040Z,1245.00
2023-07-19T09:52:40.093Z,1262.00
2023-07-19T09:53:40.144Z,1224.00
2023-07-19T09:54:40.234Z,1232.00
2023-07-19T09:55:40.198Z,1243.00
2023-07-19T09:56:40.265Z,1233.00
2023-07-19T09:57:40.273Z,1249.00
2023-07-19T09:58:40.309Z,1240.00
2023-07-19T09:59:40.372Z,1233.00
2023-07-19T10:00:40.384Z,1227.00
2023-07-19T10:01:40.471Z,1193.00
2023-07-19T10:02:40.549Z,1230.00
2023-07-19T10:03:40.556Z,1202.00
2023-07-19T10:04:40.614Z,1200.00
2023-07-19T10:05:40.699Z,1192.00
2023-07-19T10:06:40.700Z,1182.00
2023-07-19T10:08:40.754Z,1187.00
2023-07-19T10:09:40.708Z,1199.00
2023-07-19T10:10:40.750Z,1217.00
2023-07-19T10:11:40.696Z,1206.00
2023-07-19T10:12:40.700Z,1205.00
2023-07-19T10:13:40.725Z,1209.00
2023-07-19T10:14:40.869Z,1211.00
2023-07-19T10:15:40.871Z,1212.00
2023-07-19T10:16:40.874Z,1215.00
2023-07-19T10:17:41.001Z,1209.00
2023-07-19T10:18:40.867Z,1212.00
2023-07-19T10:19:40.896Z,1222.00
2023-07-19T10:20:40.872Z,1217.00
2023-07-19T10:21:40.869Z,1193.00
2023-07-19T10:22:40.936Z,1200.00
2023-07-19T10:23:40.923Z,1184.00
2023-07-19T10:24:40.925Z,1184.00
2023-07-19T10:25:40.961Z,1167.00
2023-07-19T10:26:40.953Z,1153.00
2023-07-19T10:27:40.948Z,1155.00
2023-07-19T10:28:40.981Z,1153.00
2023-07-19T10:29:40.995Z,1134.00
2023-07-19T10:30:41.114Z,1120.00
2023-07-19T10:31:41.019Z,1079.00
2023-07-19T10:32:41.066Z,1095.00
2023-07-19T10:33:41.131Z,1041.00
2023-07-19T10:34:44.782Z,1076.00
2023-07-19T10:35:41.113Z,1076.00
2023-07-19T10:36:41.049Z,1074.00
2023-07-19T10:37:41.047Z,1077.00
2023-07-19T10:38:41.032Z,1064.00
2023-07-19T10:39:41.032Z,1050.00
2023-07-19T10:40:41.039Z,1017.00
2023-07-19T10:41:41.006Z,990.00
2023-07-19T10:42:41.033Z,997.00
2023-07-19T10:44:40.992Z,954.00
2023-07-19T10:45:41.091Z,929.00
2023-07-19T10:46:40.997Z,873.00
2023-07-19T10:47:40.964Z,891.00
2023-07-19T10:48:42.454Z,867.00
2023-07-19T10:49:40.956Z,842.00
2023-07-19T10:50:40.972Z,820.00
2023-07-19T10:51:40.936Z,815.00
2023-07-19T10:52:40.920Z,816.00
2023-07-19T10:53:40.924Z,804.00
2023-07-19T10:54:51.252Z,802.00
2023-07-19T10:56:41.904Z,803.00
2023-07-19T10:57:40.921Z,805.00
2023-07-19T10:58:40.907Z,803.00
2023-07-19T10:59:40.878Z,799.00
2023-07-19T11:00:40.860Z,790.00
2023-07-19T11:01:41.332Z,816.00
2023-07-19T11:02:40.941Z,835.00
2023-07-19T11:03:40.896Z,813.00
2023-07-19T11:04:40.835Z,788.00
2023-07-19T11:05:40.840Z,817.00
2023-07-19T11:06:41.271Z,932.00
2023-07-19T11:07:40.861Z,1088.00
2023-07-19T11:08:40.804Z,1176.00
2023-07-19T11:09:40.815Z,1218.00
2023-07-19T11:10:40.829Z,1170.00
2023-07-19T11:11:40.848Z,1109.00
2023-07-19T11:12:40.808Z,1088.00
2023-07-19T11:13:40.818Z,1087.00
2023-07-19T11:14:40.804Z,1100.00
2023-07-19T11:15:40.830Z,1097.00
2023-07-19T11:16:40.937Z,1084.00
2023-07-19T11:17:40.769Z,1097.00
2023-07-19T11:18:40.792Z,1043.00
2023-07-19T11:19:40.769Z,1019.00
2023-07-19T11:20:40.812Z,1004.00
2023-07-19T11:21:40.737Z,974.00
2023-07-19T11:22:40.808Z,977.00
2023-07-19T11:23:40.732Z,983.00
2023-07-19T11:24:40.722Z,985.00
2023-07-19T11:25:40.762Z,957.00
2023-07-19T11:26:40.737Z,976.00
2023-07-19T11:27:40.689Z,949.00
2023-07-19T11:28:40.677Z,948.00
2023-07-19T11:29:40.687Z,958.00
2023-07-19T11:30:40.788Z,995.00
2023-07-19T11:31:40.748Z,929.00
2023-07-19T11:32:40.700Z,892.00
2023-07-19T11:33:40.664Z,830.00
2023-07-19T11:34:40.738Z,815.00
2023-07-19T11:35:40.686Z,808.00
2023-07-19T11:36:40.650Z,807.00
2023-07-19T11:37:40.622Z,816.00
2023-07-19T11:38:40.630Z,784.00
2023-07-19T11:39:40.596Z,719.00
2023-07-19T11:40:40.625Z,718.00
2023-07-19T11:41:40.588Z,749.00
2023-07-19T11:42:40.664Z,749.00
2023-07-19T11:43:40.591Z,739.00
2023-07-19T11:44:40.601Z,737.00
2023-07-19T11:45:40.566Z,693.00
2023-07-19T11:46:40.597Z,685.00
2023-07-19T11:47:40.561Z,700.00
2023-07-19T11:48:40.569Z,705.00
2023-07-19T11:49:40.573Z,706.00
2023-07-19T11:50:40.536Z,708.00
2023-07-19T11:51:40.533Z,682.00
2023-07-19T11:52:40.533Z,686.00
2023-07-19T11:53:40.528Z,703.00
2023-07-19T11:54:40.502Z,677.00
2023-07-19T11:55:40.504Z,653.00
2023-07-19T11:56:40.532Z,645.00
2023-07-19T11:57:40.490Z,669.00
2023-07-19T11:58:45.879Z,646.00
2023-07-19T11:59:41.553Z,646.00
2023-07-19T12:00:40.537Z,648.00
2023-07-19T12:01:40.473Z,640.00
2023-07-19T12:02:40.534Z,634.00
2023-07-19T12:03:40.463Z,628.00
2023-07-19T12:04:40.460Z,645.00
2023-07-19T12:05:40.428Z,621.00
2023-07-19T12:06:40.424Z,635.00
2023-07-19T12:07:40.422Z,643.00
2023-07-19T12:08:40.445Z,641.00
2023-07-19T12:09:40.408Z,660.00
2023-07-19T12:10:40.405Z,645.00
2023-07-19T12:11:40.404Z,635.00